sensor_id;sensor_type;location;lat;lon;timestamp;pressure;altitude;pressure_sealevel;temperature;humidity
8366;BME280;4220;42.502;24.188;2023-05-25T00:01:06;95203.25;;;13.59;100.00
8366;BME280;4220;42.502;24.188;2023-05-25T00:03:33;95161.53;;;13.36;100.00
8366;BME280;4220;42.502;24.188;2023-05-25T00:06:00;95208.59;;;13.59;100.00
8366;BME280;4220;42.502;24.188;2023-05-25T00:08:28;95217.50;;;13.64;100.00
8366;BME280;4220;42.502;24.188;2023-05-25T00:10:55;95210.84;;;13.78;100.00
8366;BME280;4220;42.502;24.188;2023-05-25T00:13:22;95209.84;;;13.68;100.00
8366;BME280;4220;42.502;24.188;2023-05-25T00:15:49;95206.53;;;13.49;100.00
8366;BME280;4220;42.502;24.188;2023-05-25T00:18:16;95201.78;;;13.51;100.00
8366;BME280;4220;42.502;24.188;2023-05-25T00:20:43;95193.19;;;13.21;100.00
8366;BME280;4220;42.502;24.188;2023-05-25T00:23:10;95196.19;;;13.01;100.00
8366;BME280;4220;42.502;24.188;2023-05-25T00:25:38;95207.31;;;12.75;100.00
8366;BME280;4220;42.502;24.188;2023-05-25T00:28:05;95206.63;;;12.68;100.00
8366;BME280;4220;42.502;24.188;2023-05-25T00:30:32;95206.63;;;12.80;100.00
8366;BME280;4220;42.502;24.188;2023-05-25T00:32:58;95197.81;;;12.91;100.00
8366;BME280;4220;42.502;24.188;2023-05-25T00:35:26;95209.16;;;12.86;100.00
8366;BME280;4220;42.502;24.188;2023-05-25T00:37:52;95213.13;;;12.72;100.00
8366;BME280;4220;42.502;24.188;2023-05-25T00:40:20;95185.09;;;12.35;100.00
8366;BME280;4220;42.502;24.188;2023-05-25T00:42:49;95203.16;;;12.56;100.00
8366;BME280;4220;42.502;24.188;2023-05-25T00:45:16;95206.94;;;12.48;100.00
8366;BME280;4220;42.502;24.188;2023-05-25T00:47:44;95207.53;;;12.51;100.00
8366;BME280;4220;42.502;24.188;2023-05-25T00:50:13;95199.00;;;12.60;100.00
8366;BME280;4220;42.502;24.188;2023-05-25T00:52:41;95159.31;;;12.35;100.00
8366;BME280;4220;42.502;24.188;2023-05-25T00:55:10;95203.03;;;12.74;100.00
8366;BME280;4220;42.502;24.188;2023-05-25T00:57:41;95209.41;;;12.96;100.00
8366;BME280;4220;42.502;24.188;2023-05-25T01:00:13;95203.72;;;13.04;100.00
8366;BME280;4220;42.502;24.188;2023-05-25T01:02:41;95206.03;;;13.13;100.00
8366;BME280;4220;42.502;24.188;2023-05-25T01:05:09;95205.34;;;13.17;100.00
8366;BME280;4220;42.502;24.188;2023-05-25T01:07:38;95210.09;;;13.27;100.00
8366;BME280;4220;42.502;24.188;2023-05-25T01:10:08;95211.38;;;13.24;100.00
8366;BME280;4220;42.502;24.188;2023-05-25T01:12:37;95208.94;;;13.11;100.00
8366;BME280;4220;42.502;24.188;2023-05-25T01:15:05;95215.19;;;13.17;100.00
8366;BME280;4220;42.502;24.188;2023-05-25T01:17:33;95205.94;;;13.19;100.00
8366;BME280;4220;42.502;24.188;2023-05-25T01:20:02;95209.97;;;12.98;100.00
8366;BME280;4220;42.502;24.188;2023-05-25T01:22:36;95209.75;;;12.88;100.00
8366;BME280;4220;42.502;24.188;2023-05-25T01:25:09;95208.50;;;12.79;100.00
8366;BME280;4220;42.502;24.188;2023-05-25T01:27:40;95200.59;;;12.61;100.00
8366;BME280;4220;42.502;24.188;2023-05-25T01:30:13;95208.03;;;12.82;100.00
8366;BME280;4220;42.502;24.188;2023-05-25T01:32:41;95211.84;;;12.75;100.00
8366;BME280;4220;42.502;24.188;2023-05-25T01:35:08;95198.66;;;12.80;100.00
8366;BME280;4220;42.502;24.188;2023-05-25T01:37:37;95211.34;;;13.01;100.00
8366;BME280;4220;42.502;24.188;2023-05-25T01:40:05;95195.88;;;13.09;100.00
8366;BME280;4220;42.502;24.188;2023-05-25T01:42:32;95215.31;;;13.22;100.00
8366;BME280;4220;42.502;24.188;2023-05-25T01:45:00;95211.56;;;13.34;100.00
8366;BME280;4220;42.502;24.188;2023-05-25T01:47:30;95209.59;;;13.41;100.00
8366;BME280;4220;42.502;24.188;2023-05-25T01:50:02;95140.75;;;13.10;100.00
8366;BME280;4220;42.502;24.188;2023-05-25T01:52:35;95210.13;;;13.55;100.00
8366;BME280;4220;42.502;24.188;2023-05-25T01:55:06;95212.63;;;13.61;100.00
8366;BME280;4220;42.502;24.188;2023-05-25T01:57:35;95201.66;;;13.58;100.00
8366;BME280;4220;42.502;24.188;2023-05-25T02:00:04;95109.56;;;12.82;100.00
8366;BME280;4220;42.502;24.188;2023-05-25T02:02:32;95206.88;;;13.53;100.00
8366;BME280;4220;42.502;24.188;2023-05-25T02:05:00;95221.75;;;13.49;100.00
8366;BME280;4220;42.502;24.188;2023-05-25T02:07:27;95213.16;;;13.47;100.00
8366;BME280;4220;42.502;24.188;2023-05-25T02:09:54;95212.72;;;13.38;100.00
8366;BME280;4220;42.502;24.188;2023-05-25T02:12:22;95215.41;;;13.27;100.00
8366;BME280;4220;42.502;24.188;2023-05-25T02:14:49;95220.31;;;13.06;100.00
8366;BME280;4220;42.502;24.188;2023-05-25T02:17:16;95213.22;;;13.12;100.00
8366;BME280;4220;42.502;24.188;2023-05-25T02:19:44;95208.72;;;12.89;100.00
8366;BME280;4220;42.502;24.188;2023-05-25T02:22:12;95212.75;;;12.92;100.00
8366;BME280;4220;42.502;24.188;2023-05-25T02:24:38;95215.97;;;13.05;100.00
8366;BME280;4220;42.502;24.188;2023-05-25T02:27:05;95223.41;;;13.15;100.00
8366;BME280;4220;42.502;24.188;2023-05-25T02:29:34;95223.41;;;13.15;100.00
8366;BME280;4220;42.502;24.188;2023-05-25T02:32:01;95202.09;;;12.80;100.00
8366;BME280;4220;42.502;24.188;2023-05-25T02:34:27;95214.16;;;12.60;100.00
8366;BME280;4220;42.502;24.188;2023-05-25T02:36:54;95211.44;;;12.36;100.00
8366;BME280;4220;42.502;24.188;2023-05-25T02:39:21;95196.50;;;12.12;100.00
8366;BME280;4220;42.502;24.188;2023-05-25T02:41:50;95209.81;;;12.24;100.00
8366;BME280;4220;42.502;24.188;2023-05-25T02:44:17;95213.97;;;12.31;100.00
8366;BME280;4220;42.502;24.188;2023-05-25T02:46:45;95224.34;;;12.63;100.00
8366;BME280;4220;42.502;24.188;2023-05-25T02:49:13;95219.81;;;12.75;100.00
8366;BME280;4220;42.502;24.188;2023-05-25T02:51:39;95209.88;;;12.82;100.00
8366;BME280;4220;42.502;24.188;2023-05-25T02:54:06;95234.50;;;13.00;100.00
8366;BME280;4220;42.502;24.188;2023-05-25T02:56:33;95226.44;;;13.07;100.00
8366;BME280;4220;42.502;24.188;2023-05-25T02:59:00;95230.81;;;13.01;100.00
8366;BME280;4220;42.502;24.188;2023-05-25T03:01:27;95241.72;;;13.12;100.00
8366;BME280;4220;42.502;24.188;2023-05-25T03:03:56;95242.75;;;13.10;100.00
8366;BME280;4220;42.502;24.188;2023-05-25T03:06:23;95236.72;;;13.15;100.00
8366;BME280;4220;42.502;24.188;2023-05-25T03:08:50;95247.84;;;13.24;100.00
8366;BME280;4220;42.502;24.188;2023-05-25T03:11:17;95241.81;;;13.28;100.00
8366;BME280;4220;42.502;24.188;2023-05-25T03:13:44;95241.34;;;13.31;100.00
8366;BME280;4220;42.502;24.188;2023-05-25T03:16:11;95226.84;;;13.27;100.00
8366;BME280;4220;42.502;24.188;2023-05-25T03:18:37;95235.78;;;13.33;100.00
8366;BME280;4220;42.502;24.188;2023-05-25T03:21:06;95237.06;;;13.30;100.00
8366;BME280;4220;42.502;24.188;2023-05-25T03:23:33;95244.47;;;13.28;100.00
8366;BME280;4220;42.502;24.188;2023-05-25T03:25:59;95248.28;;;13.32;100.00
8366;BME280;4220;42.502;24.188;2023-05-25T03:28:26;95231.41;;;13.15;100.00
8366;BME280;4220;42.502;24.188;2023-05-25T03:30:53;95246.34;;;13.16;100.00
8366;BME280;4220;42.502;24.188;2023-05-25T03:33:20;95241.03;;;13.16;100.00
8366;BME280;4220;42.502;24.188;2023-05-25T03:35:47;95242.28;;;13.25;100.00
8366;BME280;4220;42.502;24.188;2023-05-25T03:38:15;95231.63;;;13.25;100.00
8366;BME280;4220;42.502;24.188;2023-05-25T03:40:42;95245.84;;;13.31;100.00
8366;BME280;4220;42.502;24.188;2023-05-25T03:43:09;95243.53;;;13.34;100.00
8366;BME280;4220;42.502;24.188;2023-05-25T03:45:36;95237.41;;;13.34;100.00
8366;BME280;4220;42.502;24.188;2023-05-25T03:48:03;95251.75;;;13.33;100.00
8366;BME280;4220;42.502;24.188;2023-05-25T03:50:30;95250.25;;;13.25;100.00
8366;BME280;4220;42.502;24.188;2023-05-25T03:52:58;95254.88;;;13.41;100.00
8366;BME280;4220;42.502;24.188;2023-05-25T03:55:26;95231.38;;;13.38;100.00
8366;BME280;4220;42.502;24.188;2023-05-25T03:57:53;95254.38;;;13.44;100.00
8366;BME280;4220;42.502;24.188;2023-05-25T04:00:20;95259.41;;;13.18;100.00
8366;BME280;4220;42.502;24.188;2023-05-25T04:02:47;95252.31;;;13.00;100.00
8366;BME280;4220;42.502;24.188;2023-05-25T04:05:14;95241.69;;;13.23;100.00
8366;BME280;4220;42.502;24.188;2023-05-25T04:07:41;95242.34;;;13.42;100.00
8366;BME280;4220;42.502;24.188;2023-05-25T04:10:09;95244.16;;;13.64;100.00
8366;BME280;4220;42.502;24.188;2023-05-25T04:12:37;95243.28;;;13.87;100.00
8366;BME280;4220;42.502;24.188;2023-05-25T04:15:06;95253.06;;;13.98;100.00
8366;BME280;4220;42.502;24.188;2023-05-25T04:17:33;95252.31;;;14.14;100.00
8366;BME280;4220;42.502;24.188;2023-05-25T04:20:00;95250.56;;;14.20;100.00
8366;BME280;4220;42.502;24.188;2023-05-25T04:22:28;95259.44;;;14.37;100.00
8366;BME280;4220;42.502;24.188;2023-05-25T04:24:55;95257.81;;;14.36;100.00
8366;BME280;4220;42.502;24.188;2023-05-25T04:27:22;95271.78;;;14.43;100.00
8366;BME280;4220;42.502;24.188;2023-05-25T04:29:52;95241.44;;;14.32;100.00
8366;BME280;4220;42.502;24.188;2023-05-25T04:32:18;95266.56;;;14.65;100.00
8366;BME280;4220;42.502;24.188;2023-05-25T04:34:46;95260.25;;;14.71;100.00
8366;BME280;4220;42.502;24.188;2023-05-25T04:37:13;95260.25;;;14.87;100.00
8366;BME280;4220;42.502;24.188;2023-05-25T04:39:39;95280.31;;;15.06;100.00
8366;BME280;4220;42.502;24.188;2023-05-25T04:42:06;95278.34;;;15.19;100.00
8366;BME280;4220;42.502;24.188;2023-05-25T04:44:33;95239.59;;;14.99;100.00
8366;BME280;4220;42.502;24.188;2023-05-25T04:47:01;95282.13;;;15.39;100.00
8366;BME280;4220;42.502;24.188;2023-05-25T04:49:28;95281.22;;;15.50;100.00
8366;BME280;4220;42.502;24.188;2023-05-25T04:51:55;95278.69;;;15.60;100.00
8366;BME280;4220;42.502;24.188;2023-05-25T04:54:22;95279.09;;;15.69;100.00
8366;BME280;4220;42.502;24.188;2023-05-25T04:56:49;95280.69;;;15.70;100.00
8366;BME280;4220;42.502;24.188;2023-05-25T04:59:16;95272.50;;;15.77;100.00
8366;BME280;4220;42.502;24.188;2023-05-25T05:01:43;95282.88;;;15.95;100.00
8366;BME280;4220;42.502;24.188;2023-05-25T05:04:11;95271.25;;;16.06;100.00
8366;BME280;4220;42.502;24.188;2023-05-25T05:06:40;95274.53;;;16.13;100.00
8366;BME280;4220;42.502;24.188;2023-05-25T05:09:07;95269.56;;;16.21;100.00
8366;BME280;4220;42.502;24.188;2023-05-25T05:11:34;95265.84;;;16.27;100.00
8366;BME280;4220;42.502;24.188;2023-05-25T05:14:01;95281.81;;;16.44;100.00
8366;BME280;4220;42.502;24.188;2023-05-25T05:16:28;95279.19;;;16.49;100.00
8366;BME280;4220;42.502;24.188;2023-05-25T05:19:02;95286.53;;;16.59;100.00
8366;BME280;4220;42.502;24.188;2023-05-25T05:21:30;95287.69;;;16.68;100.00
8366;BME280;4220;42.502;24.188;2023-05-25T05:23:57;95285.56;;;16.70;100.00
8366;BME280;4220;42.502;24.188;2023-05-25T05:26:24;95289.13;;;16.75;100.00
8366;BME280;4220;42.502;24.188;2023-05-25T05:28:52;95293.69;;;16.80;100.00
8366;BME280;4220;42.502;24.188;2023-05-25T05:31:21;95292.94;;;16.84;100.00
8366;BME280;4220;42.502;24.188;2023-05-25T05:33:48;95285.44;;;16.86;100.00
8366;BME280;4220;42.502;24.188;2023-05-25T05:36:15;95298.16;;;17.01;100.00
8366;BME280;4220;42.502;24.188;2023-05-25T05:38:43;95292.31;;;17.09;100.00
8366;BME280;4220;42.502;24.188;2023-05-25T05:41:11;95255.25;;;16.96;100.00
8366;BME280;4220;42.502;24.188;2023-05-25T05:43:39;95282.28;;;17.26;100.00
8366;BME280;4220;42.502;24.188;2023-05-25T05:46:07;95226.66;;;17.07;100.00
8366;BME280;4220;42.502;24.188;2023-05-25T05:48:34;95266.22;;;17.31;100.00
8366;BME280;4220;42.502;24.188;2023-05-25T05:51:01;95298.84;;;17.60;100.00
8366;BME280;4220;42.502;24.188;2023-05-25T05:53:28;95295.97;;;17.72;100.00
8366;BME280;4220;42.502;24.188;2023-05-25T05:55:56;95291.13;;;17.63;100.00
8366;BME280;4220;42.502;24.188;2023-05-25T05:58:24;95290.53;;;17.56;100.00
8366;BME280;4220;42.502;24.188;2023-05-25T06:00:52;95291.81;;;17.49;100.00
8366;BME280;4220;42.502;24.188;2023-05-25T06:03:19;95284.19;;;17.73;100.00
8366;BME280;4220;42.502;24.188;2023-05-25T06:05:46;95298.81;;;18.02;100.00
8366;BME280;4220;42.502;24.188;2023-05-25T06:08:13;95300.94;;;18.00;100.00
8366;BME280;4220;42.502;24.188;2023-05-25T06:10:40;95308.25;;;18.14;100.00
8366;BME280;4220;42.502;24.188;2023-05-25T06:13:09;95302.69;;;18.41;100.00
8366;BME280;4220;42.502;24.188;2023-05-25T06:15:36;95276.34;;;18.38;100.00
8366;BME280;4220;42.502;24.188;2023-05-25T06:18:03;95277.53;;;18.62;100.00
8366;BME280;4220;42.502;24.188;2023-05-25T06:20:29;95303.34;;;18.93;100.00
8366;BME280;4220;42.502;24.188;2023-05-25T06:22:56;95302.28;;;19.15;100.00
8366;BME280;4220;42.502;24.188;2023-05-25T06:25:23;95311.16;;;19.30;100.00
8366;BME280;4220;42.502;24.188;2023-05-25T06:27:50;95306.31;;;19.42;100.00
8366;BME280;4220;42.502;24.188;2023-05-25T06:30:18;95301.47;;;19.49;100.00
8366;BME280;4220;42.502;24.188;2023-05-25T06:32:45;95308.16;;;19.67;100.00
8366;BME280;4220;42.502;24.188;2023-05-25T06:35:12;95297.38;;;19.77;100.00
8366;BME280;4220;42.502;24.188;2023-05-25T06:37:44;95300.06;;;19.87;100.00
8366;BME280;4220;42.502;24.188;2023-05-25T06:40:11;95280.13;;;19.83;100.00
8366;BME280;4220;42.502;24.188;2023-05-25T06:42:38;95316.06;;;20.17;100.00
8366;BME280;4220;42.502;24.188;2023-05-25T06:45:07;95315.25;;;20.27;100.00
8366;BME280;4220;42.502;24.188;2023-05-25T06:47:36;95318.75;;;20.33;100.00
8366;BME280;4220;42.502;24.188;2023-05-25T06:50:03;95278.94;;;20.14;100.00
8366;BME280;4220;42.502;24.188;2023-05-25T06:52:30;95315.97;;;20.48;100.00
8366;BME280;4220;42.502;24.188;2023-05-25T06:54:57;95316.47;;;20.55;100.00
8366;BME280;4220;42.502;24.188;2023-05-25T06:57:24;95313.19;;;20.63;100.00
8366;BME280;4220;42.502;24.188;2023-05-25T06:59:51;95308.03;;;20.66;100.00
8366;BME280;4220;42.502;24.188;2023-05-25T07:02:17;95316.09;;;20.71;100.00
8366;BME280;4220;42.502;24.188;2023-05-25T07:04:46;95313.66;;;20.75;100.00
8366;BME280;4220;42.502;24.188;2023-05-25T07:07:13;95305.03;;;20.78;100.00
8366;BME280;4220;42.502;24.188;2023-05-25T07:09:40;95277.38;;;20.57;100.00
8366;BME280;4220;42.502;24.188;2023-05-25T07:12:07;95314.94;;;20.88;100.00
8366;BME280;4220;42.502;24.188;2023-05-25T07:14:35;95304.94;;;20.93;100.00
8366;BME280;4220;42.502;24.188;2023-05-25T07:17:02;95279.16;;;20.77;100.00
8366;BME280;4220;42.502;24.188;2023-05-25T07:19:29;95309.16;;;21.04;100.00
8366;BME280;4220;42.502;24.188;2023-05-25T07:21:57;95324.72;;;21.17;100.00
8366;BME280;4220;42.502;24.188;2023-05-25T07:24:24;95323.38;;;21.20;100.00
8366;BME280;4220;42.502;24.188;2023-05-25T07:26:51;95323.03;;;21.26;100.00
8366;BME280;4220;42.502;24.188;2023-05-25T07:29:18;95300.72;;;21.16;100.00
8366;BME280;4220;42.502;24.188;2023-05-25T07:31:44;95317.03;;;21.34;100.00
8366;BME280;4220;42.502;24.188;2023-05-25T07:34:11;95332.03;;;21.45;100.00
8366;BME280;4220;42.502;24.188;2023-05-25T07:36:38;95325.53;;;21.52;100.00
8366;BME280;4220;42.502;24.188;2023-05-25T07:39:06;95331.69;;;21.57;100.00
8366;BME280;4220;42.502;24.188;2023-05-25T07:41:33;95330.34;;;21.55;100.00
8366;BME280;4220;42.502;24.188;2023-05-25T07:44:00;95343.31;;;21.52;100.00
8366;BME280;4220;42.502;24.188;2023-05-25T07:46:27;95339.09;;;21.41;100.00
8366;BME280;4220;42.502;24.188;2023-05-25T07:48:54;95343.34;;;21.14;100.00
8366;BME280;4220;42.502;24.188;2023-05-25T07:51:22;95337.47;;;21.02;100.00
8366;BME280;4220;42.502;24.188;2023-05-25T07:53:50;95332.84;;;20.68;100.00
8366;BME280;4220;42.502;24.188;2023-05-25T07:56:19;95325.94;;;20.47;100.00
8366;BME280;4220;42.502;24.188;2023-05-25T07:58:47;95339.19;;;20.39;100.00
8366;BME280;4220;42.502;24.188;2023-05-25T08:01:14;95330.63;;;20.21;100.00
8366;BME280;4220;42.502;24.188;2023-05-25T08:03:41;95326.59;;;20.14;100.00
8366;BME280;4220;42.502;24.188;2023-05-25T08:06:08;95336.84;;;20.12;100.00
8366;BME280;4220;42.502;24.188;2023-05-25T08:08:35;95335.00;;;20.02;100.00
8366;BME280;4220;42.502;24.188;2023-05-25T08:11:02;95339.28;;;20.08;100.00
8366;BME280;4220;42.502;24.188;2023-05-25T08:13:31;95337.09;;;20.10;100.00
8366;BME280;4220;42.502;24.188;2023-05-25T08:15:57;95334.94;;;20.23;100.00
8366;BME280;4220;42.502;24.188;2023-05-25T08:18:24;95333.84;;;20.29;100.00
8366;BME280;4220;42.502;24.188;2023-05-25T08:20:51;95331.69;;;20.31;100.00
8366;BME280;4220;42.502;24.188;2023-05-25T08:23:18;95324.66;;;20.30;100.00
8366;BME280;4220;42.502;24.188;2023-05-25T08:25:46;95321.97;;;20.35;100.00
8366;BME280;4220;42.502;24.188;2023-05-25T08:28:14;95321.72;;;20.31;97.74
8366;BME280;4220;42.502;24.188;2023-05-25T08:30:43;95273.84;;;20.08;96.02
8366;BME280;4220;42.502;24.188;2023-05-25T08:33:10;95321.41;;;20.38;95.24
8366;BME280;4220;42.502;24.188;2023-05-25T08:35:37;95319.22;;;20.45;93.69
8366;BME280;4220;42.502;24.188;2023-05-25T08:38:07;95281.56;;;20.30;91.19
8366;BME280;4220;42.502;24.188;2023-05-25T08:40:34;95309.50;;;20.54;90.14
8366;BME280;4220;42.502;24.188;2023-05-25T08:43:01;95321.19;;;20.83;87.90
8366;BME280;4220;42.502;24.188;2023-05-25T08:45:28;95323.53;;;20.90;84.42
8366;BME280;4220;42.502;24.188;2023-05-25T08:47:58;95322.19;;;20.92;84.83
8366;BME280;4220;42.502;24.188;2023-05-25T08:50:26;95326.53;;;20.88;85.32
8366;BME280;4220;42.502;24.188;2023-05-25T08:52:56;95328.03;;;21.09;84.18
8366;BME280;4220;42.502;24.188;2023-05-25T08:55:26;95325.22;;;21.24;79.95
8366;BME280;4220;42.502;24.188;2023-05-25T08:58:01;95323.81;;;21.32;77.02
8366;BME280;4220;42.502;24.188;2023-05-25T09:00:33;95323.13;;;21.45;76.15
8366;BME280;4220;42.502;24.188;2023-05-25T09:03:06;95299.19;;;21.38;78.54
8366;BME280;4220;42.502;24.188;2023-05-25T09:05:36;95331.19;;;21.79;81.04
8366;BME280;4220;42.502;24.188;2023-05-25T09:08:04;95332.97;;;21.93;83.29
8366;BME280;4220;42.502;24.188;2023-05-25T09:10:33;95333.03;;;22.12;77.57
8366;BME280;4220;42.502;24.188;2023-05-25T09:13:00;95317.41;;;22.33;81.75
8366;BME280;4220;42.502;24.188;2023-05-25T09:15:28;95329.94;;;22.66;77.96
8366;BME280;4220;42.502;24.188;2023-05-25T09:17:55;95324.78;;;22.88;75.20
8366;BME280;4220;42.502;24.188;2023-05-25T09:20:24;95319.13;;;22.66;76.25
8366;BME280;4220;42.502;24.188;2023-05-25T09:22:55;95313.31;;;22.77;75.64
8366;BME280;4220;42.502;24.188;2023-05-25T09:25:22;95327.63;;;22.97;68.88
8366;BME280;4220;42.502;24.188;2023-05-25T09:27:50;95322.94;;;23.21;68.50
8366;BME280;4220;42.502;24.188;2023-05-25T09:30:17;95326.97;;;23.05;67.86
8366;BME280;4220;42.502;24.188;2023-05-25T09:32:44;95315.56;;;23.08;64.15
8366;BME280;4220;42.502;24.188;2023-05-25T09:35:12;95311.16;;;23.30;58.64
8366;BME280;4220;42.502;24.188;2023-05-25T09:37:41;95315.22;;;23.47;60.21
8366;BME280;4220;42.502;24.188;2023-05-25T09:40:12;95309.13;;;23.41;58.81
8366;BME280;4220;42.502;24.188;2023-05-25T09:42:38;95308.31;;;23.40;59.04
8366;BME280;4220;42.502;24.188;2023-05-25T09:45:06;95289.03;;;23.42;61.88
8366;BME280;4220;42.502;24.188;2023-05-25T09:47:35;95300.97;;;23.73;63.01
8366;BME280;4220;42.502;24.188;2023-05-25T09:50:02;95283.91;;;23.73;61.64
8366;BME280;4220;42.502;24.188;2023-05-25T09:52:30;95296.47;;;23.82;61.15
8366;BME280;4220;42.502;24.188;2023-05-25T09:54:58;95277.56;;;23.64;61.33
8366;BME280;4220;42.502;24.188;2023-05-25T09:57:26;95298.84;;;23.84;60.06
8366;BME280;4220;42.502;24.188;2023-05-25T09:59:53;95298.19;;;23.78;61.20
8366;BME280;4220;42.502;24.188;2023-05-25T10:02:20;95291.31;;;23.67;64.47
8366;BME280;4220;42.502;24.188;2023-05-25T10:04:47;95293.44;;;23.70;64.28
8366;BME280;4220;42.502;24.188;2023-05-25T10:07:14;95290.34;;;23.45;66.90
8366;BME280;4220;42.502;24.188;2023-05-25T10:09:44;95270.41;;;23.40;66.42
8366;BME280;4220;42.502;24.188;2023-05-25T10:12:14;95272.84;;;23.56;66.53
8366;BME280;4220;42.502;24.188;2023-05-25T10:14:43;95265.84;;;23.68;66.78
8366;BME280;4220;42.502;24.188;2023-05-25T10:17:13;95263.94;;;23.69;63.92
8366;BME280;4220;42.502;24.188;2023-05-25T10:19:47;95266.44;;;23.79;64.97
8366;BME280;4220;42.502;24.188;2023-05-25T10:22:20;95249.41;;;23.78;65.01
8366;BME280;4220;42.502;24.188;2023-05-25T10:24:53;95249.72;;;23.90;64.83
8366;BME280;4220;42.502;24.188;2023-05-25T10:27:24;95264.81;;;23.64;58.26
8366;BME280;4220;42.502;24.188;2023-05-25T10:29:55;95258.41;;;23.60;62.54
8366;BME280;4220;42.502;24.188;2023-05-25T10:32:23;95244.44;;;23.39;59.62
8366;BME280;4220;42.502;24.188;2023-05-25T10:34:51;95263.72;;;23.33;60.79
8366;BME280;4220;42.502;24.188;2023-05-25T10:37:18;95258.81;;;23.35;61.04
8366;BME280;4220;42.502;24.188;2023-05-25T10:39:45;95245.19;;;23.59;61.85
8366;BME280;4220;42.502;24.188;2023-05-25T10:42:14;95258.66;;;24.04;59.76
8366;BME280;4220;42.502;24.188;2023-05-25T10:44:45;95241.69;;;24.26;61.35
8366;BME280;4220;42.502;24.188;2023-05-25T10:47:14;95250.25;;;24.69;58.35
8366;BME280;4220;42.502;24.188;2023-05-25T10:49:51;95248.22;;;25.10;56.73
8366;BME280;4220;42.502;24.188;2023-05-25T10:52:19;95232.88;;;25.37;58.05
8366;BME280;4220;42.502;24.188;2023-05-25T10:54:46;95219.81;;;25.16;54.32
8366;BME280;4220;42.502;24.188;2023-05-25T10:57:17;95239.34;;;24.96;57.38
8366;BME280;4220;42.502;24.188;2023-05-25T10:59:50;95242.34;;;25.17;55.15
8366;BME280;4220;42.502;24.188;2023-05-25T11:02:20;95246.94;;;25.39;53.82
8366;BME280;4220;42.502;24.188;2023-05-25T11:04:49;95251.78;;;25.42;50.61
8366;BME280;4220;42.502;24.188;2023-05-25T11:07:16;95270.63;;;25.16;49.61
8366;BME280;4220;42.502;24.188;2023-05-25T11:09:55;95278.38;;;25.09;50.68
8366;BME280;4220;42.502;24.188;2023-05-25T11:12:22;95306.25;;;25.01;50.45
8366;BME280;4220;42.502;24.188;2023-05-25T11:15:13;95325.50;;;24.77;60.34
8366;BME280;4220;42.502;24.188;2023-05-25T11:17:44;95337.88;;;24.15;66.52
8366;BME280;4220;42.502;24.188;2023-05-25T11:20:21;95328.63;;;23.70;70.59
8366;BME280;4220;42.502;24.188;2023-05-25T11:22:49;95336.34;;;22.94;74.79
8366;BME280;4220;42.502;24.188;2023-05-25T11:25:36;95338.25;;;22.27;80.19
8366;BME280;4220;42.502;24.188;2023-05-25T11:28:04;95336.38;;;21.46;88.17
8366;BME280;4220;42.502;24.188;2023-05-25T11:30:32;95331.53;;;21.05;96.71
8366;BME280;4220;42.502;24.188;2023-05-25T11:33:03;95331.59;;;20.51;100.00
8366;BME280;4220;42.502;24.188;2023-05-25T11:35:32;95330.13;;;20.09;100.00
8366;BME280;4220;42.502;24.188;2023-05-25T11:38:04;95330.50;;;19.68;100.00
8366;BME280;4220;42.502;24.188;2023-05-25T11:40:31;95331.06;;;19.39;100.00
8366;BME280;4220;42.502;24.188;2023-05-25T11:42:58;95324.59;;;19.15;100.00
8366;BME280;4220;42.502;24.188;2023-05-25T11:45:27;95338.56;;;19.02;100.00
8366;BME280;4220;42.502;24.188;2023-05-25T11:47:56;95336.94;;;18.86;100.00
8366;BME280;4220;42.502;24.188;2023-05-25T11:50:23;95347.38;;;18.62;100.00
8366;BME280;4220;42.502;24.188;2023-05-25T11:52:50;95308.25;;;18.14;100.00
8366;BME280;4220;42.502;24.188;2023-05-25T11:55:17;95343.38;;;18.03;100.00
8366;BME280;4220;42.502;24.188;2023-05-25T11:57:43;95333.28;;;17.73;100.00
8366;BME280;4220;42.502;24.188;2023-05-25T12:00:11;95336.31;;;17.92;100.00
8366;BME280;4220;42.502;24.188;2023-05-25T12:02:39;95334.00;;;18.10;100.00
8366;BME280;4220;42.502;24.188;2023-05-25T12:05:08;95334.19;;;17.99;100.00
8366;BME280;4220;42.502;24.188;2023-05-25T12:07:41;95337.69;;;17.99;100.00
8366;BME280;4220;42.502;24.188;2023-05-25T12:10:09;95285.34;;;17.97;100.00
8366;BME280;4220;42.502;24.188;2023-05-25T12:12:40;95297.81;;;18.28;100.00
8366;BME280;4220;42.502;24.188;2023-05-25T12:15:08;95346.31;;;18.78;100.00
8366;BME280;4220;42.502;24.188;2023-05-25T12:17:36;95335.31;;;18.90;100.00
8366;BME280;4220;42.502;24.188;2023-05-25T12:20:04;95326.47;;;19.00;100.00
8366;BME280;4220;42.502;24.188;2023-05-25T12:22:33;95319.50;;;19.09;100.00
8366;BME280;4220;42.502;24.188;2023-05-25T12:25:00;95323.25;;;19.28;100.00
8366;BME280;4220;42.502;24.188;2023-05-25T12:27:27;95323.53;;;19.41;100.00
8366;BME280;4220;42.502;24.188;2023-05-25T12:29:57;95314.09;;;19.54;100.00
8366;BME280;4220;42.502;24.188;2023-05-25T12:32:25;95313.53;;;19.72;100.00
8366;BME280;4220;42.502;24.188;2023-05-25T12:35:01;95310.53;;;19.89;100.00
8366;BME280;4220;42.502;24.188;2023-05-25T12:37:28;95310.56;;;19.74;100.00
8366;BME280;4220;42.502;24.188;2023-05-25T12:39:56;95307.38;;;19.51;100.00
8366;BME280;4220;42.502;24.188;2023-05-25T12:42:23;95302.56;;;19.18;100.00
8366;BME280;4220;42.502;24.188;2023-05-25T12:44:54;95305.22;;;18.88;100.00
8366;BME280;4220;42.502;24.188;2023-05-25T12:47:23;95296.88;;;18.74;100.00
8366;BME280;4220;42.502;24.188;2023-05-25T12:49:53;95293.13;;;18.90;100.00
8366;BME280;4220;42.502;24.188;2023-05-25T12:52:36;95290.72;;;19.04;100.00
8366;BME280;4220;42.502;24.188;2023-05-25T12:55:21;95289.34;;;19.32;100.00
8366;BME280;4220;42.502;24.188;2023-05-25T12:57:51;95284.44;;;19.84;100.00
8366;BME280;4220;42.502;24.188;2023-05-25T13:00:19;95307.03;;;20.96;100.00
8366;BME280;4220;42.502;24.188;2023-05-25T13:02:46;95314.31;;;22.39;100.00
8366;BME280;4220;42.502;24.188;2023-05-25T13:05:20;95313.56;;;23.51;100.00
8366;BME280;4220;42.502;24.188;2023-05-25T13:07:47;95297.94;;;23.75;99.17